Terminal Aerodrome Forecast
Issued by NWS

Current Version | Previous Version | Text Only | Print | Product List | Glossary On
Versions: 1 2 3 4 5 6 7 8 9 10 11 12 13 14 15 16 17 18 19 20 21 22 23 24 25 26 27 28 29 30 31 32 33 34 35 36 37
000
FTUS43 KDTX 302016 AAA
TAFYIP
TAF AMD
KYIP 302016Z 3020/3118 22007KT P6SM SCT030 BKN060
      TEMPO 3020/3022 5SM RA OVC030
     FM310200 22005KT P6SM SCT060
     FM310800 VRB03KT 3SM BR SKC
     FM311000 00000KT 1SM BR VV007
     FM311400 VRB03KT 3SM BR SCT015
     FM311600 25005KT P6SM FEW045=

USA.gov is the U.S. government's official web portal to all federal, state and local government web resources and services.